createdAt,value
2022-12-04T00:00:45.708Z,102110.85
2022-12-04T00:03:22.602Z,102108.23
2022-12-04T00:06:02.445Z,102114.33
2022-12-04T00:08:32.470Z,102116.02
2022-12-04T00:11:04.005Z,102109.09
2022-12-04T00:13:34.507Z,102122.94
2022-12-04T00:16:06.590Z,102122.94
2022-12-04T00:18:36.889Z,102122.08
2022-12-04T00:21:08.332Z,102108.97
2022-12-04T00:23:39.903Z,102115.08
2022-12-04T00:26:11.634Z,102119.38
2022-12-04T00:28:42.570Z,102119.46
2022-12-04T00:31:16.858Z,102120.32
2022-12-04T00:33:46.799Z,102119.38
2022-12-04T00:36:19.589Z,102113.28
2022-12-04T00:38:49.403Z,102119.38
2022-12-04T00:41:22.298Z,102108.89
2022-12-04T00:43:52.836Z,102111.41
2022-12-04T00:46:23.607Z,102120.20
2022-12-04T00:48:54.047Z,102120.95
2022-12-04T00:51:25.744Z,102120.12
2022-12-04T00:53:56.025Z,102122.63
2022-12-04T00:56:27.496Z,102119.19
2022-12-04T00:58:59.294Z,102114.77
2022-12-04T01:01:29.426Z,102115.63
2022-12-04T01:03:59.256Z,102112.06
2022-12-04T01:06:30.927Z,102111.21
2022-12-04T01:09:02.392Z,102106.91
2022-12-04T01:11:33.283Z,102110.27
2022-12-04T01:14:03.104Z,102106.82
2022-12-04T01:16:35.610Z,102098.09
2022-12-04T01:19:06.698Z,102104.09
2022-12-04T01:21:37.215Z,102118.88
2022-12-04T01:24:09.176Z,102117.11
2022-12-04T01:26:38.963Z,102124.87
2022-12-04T01:29:10.044Z,102132.85
2022-12-04T01:31:39.804Z,102120.48
2022-12-04T01:34:09.458Z,102117.86
2022-12-04T01:36:39.645Z,102115.13
2022-12-04T01:39:09.305Z,102113.36
2022-12-04T01:41:38.987Z,102109.80
2022-12-04T01:44:17.744Z,102104.55
2022-12-04T01:46:53.261Z,102114.11
2022-12-04T01:49:29.850Z,102118.48
2022-12-04T01:52:02.282Z,102113.16
2022-12-04T01:54:32.476Z,102109.69
2022-12-04T01:57:07.483Z,102102.87
2022-12-04T01:59:43.254Z,102099.30
2022-12-04T02:02:15.469Z,102098.45
2022-12-04T02:04:47.689Z,102105.30
2022-12-04T02:07:17.507Z,102096.57
2022-12-04T02:09:53.686Z,102097.42
2022-12-04T02:12:33.219Z,102088.81
2022-12-04T02:15:10.067Z,102093.12
2022-12-04T02:17:45.244Z,102092.18
2022-12-04T02:20:26.490Z,102093.01
2022-12-04T02:23:19.790Z,102088.62
2022-12-04T02:26:00.358Z,102101.62
2022-12-04T02:28:43.848Z,102097.42
2022-12-04T02:31:19.178Z,102100.87
2022-12-04T02:33:56.780Z,102095.83
2022-12-04T02:36:31.813Z,102104.44
2022-12-04T02:39:08.112Z,102100.87
2022-12-04T02:41:42.737Z,102100.13
2022-12-04T02:44:16.592Z,102100.13
2022-12-04T02:46:48.950Z,102097.52
2022-12-04T02:49:24.306Z,102102.75
2022-12-04T02:51:55.476Z,102092.27
2022-12-04T02:54:31.091Z,102093.12
2022-12-04T02:57:03.061Z,102087.77
2022-12-04T02:59:36.851Z,102099.94
2022-12-04T03:02:14.142Z,102090.30
2022-12-04T03:04:50.596Z,102096.38
2022-12-04T03:07:25.827Z,102108.55
2022-12-04T03:10:00.050Z,102112.11
2022-12-04T03:12:41.805Z,102116.42
2022-12-04T03:15:16.836Z,102108.66
2022-12-04T03:17:54.195Z,102112.97
2022-12-04T03:20:25.417Z,102107.72
2022-12-04T03:22:59.729Z,102098.05
2022-12-04T03:25:36.218Z,102098.05
2022-12-04T03:28:11.193Z,102098.17
2022-12-04T03:30:49.898Z,102100.80
2022-12-04T03:33:25.943Z,102102.56
2022-12-04T03:36:05.057Z,102108.74
2022-12-04T03:38:39.959Z,102102.67
2022-12-04T03:41:19.838Z,102104.44
2022-12-04T03:43:53.143Z,102101.81
2022-12-04T03:46:30.037Z,102102.67
2022-12-04T03:49:08.061Z,102104.36
2022-12-04T03:51:43.328Z,102107.80
2022-12-04T03:54:20.381Z,102107.06
2022-12-04T03:56:57.209Z,102106.23
2022-12-04T03:59:29.533Z,102106.31
2022-12-04T04:02:03.594Z,102099.39
2022-12-04T04:04:36.981Z,102104.55
2022-12-04T04:07:12.934Z,102104.55
2022-12-04T04:09:48.246Z,102105.49
2022-12-04T04:12:20.871Z,102104.75
2022-12-04T04:15:12.591Z,102103.06
2022-12-04T04:18:03.557Z,102104.75
2022-12-04T04:20:56.017Z,102106.62
2022-12-04T04:23:48.041Z,102099.70
2022-12-04T04:26:18.667Z,102097.16
2022-12-04T04:28:48.241Z,102091.09
2022-12-04T04:31:24.317Z,102102.32
2022-12-04T04:34:00.113Z,102098.84
2022-12-04T04:36:42.154Z,102103.14
2022-12-04T04:39:19.750Z,102107.45
2022-12-04T04:41:55.488Z,102104.94
2022-12-04T04:44:33.246Z,102112.81
2022-12-04T04:47:07.036Z,102109.33
2022-12-04T04:49:39.936Z,102114.69
2022-12-04T04:52:10.072Z,102111.21
2022-12-04T04:54:40.946Z,102120.02
2022-12-04T04:57:10.529Z,102113.94
2022-12-04T04:59:40.115Z,102102.59
2022-12-04T05:02:10.869Z,102102.59
2022-12-04T05:04:40.483Z,102107.95
2022-12-04T05:07:09.840Z,102101.11
2022-12-04T05:09:41.443Z,102105.33
2022-12-04T05:12:11.271Z,102109.72
2022-12-04T05:14:40.941Z,102114.14
2022-12-04T05:17:12.797Z,102107.21
2022-12-04T05:19:56.531Z,102100.36
2022-12-04T05:22:30.183Z,102101.22
2022-12-04T05:25:01.274Z,102095.31
2022-12-04T05:27:31.796Z,102114.33
2022-12-04T05:30:01.124Z,102118.72
2022-12-04T05:32:31.059Z,102120.52
2022-12-04T05:35:01.121Z,102110.11
2022-12-04T05:37:31.412Z,102116.09
2022-12-04T05:40:00.951Z,102115.16
2022-12-04T05:42:30.436Z,102123.13
2022-12-04T05:44:59.911Z,102126.77
2022-12-04T05:47:29.432Z,102131.08
2022-12-04T05:49:58.852Z,102135.50
2022-12-04T05:52:28.465Z,102133.70
2022-12-04T05:55:08.042Z,102131.83
2022-12-04T05:57:40.876Z,102136.13
2022-12-04T06:00:14.285Z,102138.75
2022-12-04T06:02:44.090Z,102135.30
2022-12-04T06:05:14.172Z,102135.30
2022-12-04T06:07:43.795Z,102136.88
2022-12-04T06:10:13.302Z,102139.50
2022-12-04T06:12:42.946Z,102149.05
2022-12-04T06:15:12.953Z,102155.23
2022-12-04T06:17:42.305Z,102159.54
2022-12-04T06:20:13.408Z,102160.40
2022-12-04T06:22:43.015Z,102162.08
2022-12-04T06:25:12.650Z,102169.02
2022-12-04T06:27:44.074Z,102169.84
2022-12-04T06:30:14.460Z,102168.90
2022-12-04T06:32:44.127Z,102167.96
2022-12-04T06:35:13.596Z,102173.13
2022-12-04T06:37:43.255Z,102170.39
2022-12-04T06:40:15.949Z,102179.01
2022-12-04T06:42:45.407Z,102184.17
2022-12-04T06:45:15.215Z,102185.74
2022-12-04T06:47:44.674Z,102177.80
2022-12-04T06:50:14.351Z,102176.86
2022-12-04T06:52:44.149Z,102173.18
2022-12-04T06:55:13.681Z,102177.41
2022-12-04T06:57:43.246Z,102185.28
2022-12-04T07:00:14.853Z,102182.66
2022-12-04T07:02:44.557Z,102183.41
2022-12-04T07:05:14.383Z,102177.11
2022-12-04T07:07:44.878Z,102181.33
2022-12-04T07:10:14.479Z,102184.89
2022-12-04T07:12:44.161Z,102184.03
2022-12-04T07:15:13.689Z,102177.96
2022-12-04T07:17:44.965Z,102175.34
2022-12-04T07:20:15.600Z,102187.41
2022-12-04T07:23:28.353Z,102177.77
2022-12-04T07:25:58.136Z,102183.84
2022-12-04T07:28:27.625Z,102188.26
2022-12-04T07:31:14.613Z,102193.59
2022-12-04T07:33:58.693Z,102198.83
2022-12-04T07:36:32.925Z,102193.59
2022-12-04T07:39:02.323Z,102194.45
2022-12-04T07:41:32.403Z,102198.64
2022-12-04T07:44:08.590Z,102200.33
2022-12-04T07:46:38.239Z,102198.64
2022-12-04T07:49:07.690Z,102206.44
2022-12-04T07:51:37.229Z,102204.55
2022-12-04T07:54:08.366Z,102204.36
2022-12-04T07:56:38.004Z,102206.98
2022-12-04T07:59:10.615Z,102211.09
2022-12-04T08:01:39.216Z,102221.48
2022-12-04T08:04:11.828Z,102212.67
2022-12-04T08:06:41.552Z,102214.35
2022-12-04T08:09:11.190Z,102223.83
2022-12-04T08:11:42.149Z,102215.95
2022-12-04T08:14:16.462Z,102215.77
2022-12-04T08:16:51.066Z,102213.88
2022-12-04T08:19:22.952Z,102212.94
2022-12-04T08:21:53.705Z,102213.77
2022-12-04T08:24:24.416Z,102210.20
2022-12-04T08:26:53.978Z,102203.93
2022-12-04T08:29:23.721Z,102213.37
2022-12-04T08:31:53.475Z,102217.60
2022-12-04T08:34:26.223Z,102210.47
2022-12-04T08:36:55.938Z,102206.79
2022-12-04T08:39:30.954Z,102204.91
2022-12-04T08:42:00.465Z,102203.02
2022-12-04T08:44:30.064Z,102209.87
2022-12-04T08:46:59.587Z,102204.42
2022-12-04T08:49:29.864Z,102206.11
2022-12-04T08:51:59.490Z,102198.97
2022-12-04T08:54:34.485Z,102192.78
2022-12-04T08:57:06.098Z,102195.20
2022-12-04T08:59:35.582Z,102197.83
2022-12-04T09:02:05.282Z,102184.61
2022-12-04T09:04:35.892Z,102177.56
2022-12-04T09:07:05.615Z,102168.66
2022-12-04T09:09:36.067Z,102166.86
2022-12-04T09:12:05.547Z,102180.84
2022-12-04T09:14:35.678Z,102176.42
2022-12-04T09:17:05.162Z,102174.53
2022-12-04T09:19:35.887Z,102169.28
2022-12-04T09:22:05.347Z,102163.94
2022-12-04T09:24:35.022Z,102169.94
2022-12-04T09:27:05.921Z,102168.25
2022-12-04T09:29:38.651Z,102172.44
2022-12-04T09:32:08.135Z,102165.30
2022-12-04T09:34:38.134Z,102169.53
2022-12-04T09:37:07.963Z,102159.84
2022-12-04T09:39:37.682Z,102157.13
2022-12-04T09:42:21.834Z,102153.56
2022-12-04T09:44:59.001Z,102147.25
2022-12-04T09:47:35.283Z,102145.48
2022-12-04T09:50:12.513Z,102142.73
2022-12-04T09:52:51.238Z,102149.58
2022-12-04T09:55:27.425Z,102146.83
2022-12-04T09:58:02.487Z,102144.00
2022-12-04T10:00:36.800Z,102143.05
2022-12-04T10:03:13.867Z,102132.34
2022-12-04T10:05:57.479Z,102131.39
2022-12-04T10:08:29.714Z,102121.61
2022-12-04T10:11:02.973Z,102126.78
2022-12-04T10:13:53.618Z,102118.69
2022-12-04T10:16:30.620Z,102124.68
2022-12-04T10:19:09.416Z,102115.00
2022-12-04T10:21:50.803Z,102103.66
2022-12-04T10:24:37.734Z,102106.16
2022-12-04T10:27:16.400Z,102102.92
2022-12-04T10:29:53.416Z,102110.80
2022-12-04T10:32:26.965Z,102109.73
2022-12-04T10:35:00.674Z,102100.91
2022-12-04T10:37:32.753Z,102099.96
2022-12-04T10:40:12.021Z,102094.62
2022-12-04T10:42:49.416Z,102089.23
2022-12-04T10:45:20.821Z,102088.29
2022-12-04T10:47:51.499Z,102088.20
2022-12-04T10:50:24.338Z,102085.45
2022-12-04T10:52:58.534Z,102087.04
2022-12-04T10:55:34.003Z,102089.55
2022-12-04T10:58:03.475Z,102082.61
2022-12-04T11:00:36.064Z,102089.45
2022-12-04T11:03:32.090Z,102091.13
2022-12-04T11:06:05.794Z,102099.02
2022-12-04T11:08:39.478Z,102087.65
2022-12-04T11:11:12.195Z,102085.88
2022-12-04T11:13:42.899Z,102087.55
2022-12-04T11:16:34.949Z,102084.80
2022-12-04T11:19:18.827Z,102086.48
2022-12-04T11:21:49.643Z,102075.54
2022-12-04T11:24:25.222Z,102079.75
2022-12-04T11:26:56.063Z,102066.48
2022-12-04T11:29:33.261Z,102062.81
2022-12-04T11:32:07.947Z,102054.93
2022-12-04T11:34:41.932Z,102056.61
2022-12-04T11:37:22.805Z,102060.06
2022-12-04T11:39:54.588Z,102046.82
2022-12-04T11:42:27.128Z,102050.05
2022-12-04T11:44:56.465Z,102048.28
2022-12-04T11:47:29.581Z,102049.02
2022-12-04T11:50:12.555Z,102044.70
2022-12-04T11:52:59.266Z,102048.06
2022-12-04T11:55:40.416Z,102035.86
2022-12-04T11:58:28.125Z,102032.89
2022-12-04T12:01:09.950Z,102026.59
2022-12-04T12:03:46.120Z,102023.00
2022-12-04T12:06:30.499Z,102026.97
2022-12-04T12:09:22.433Z,102012.77
2022-12-04T12:12:02.580Z,102017.80
2022-12-04T12:14:40.528Z,102020.31
2022-12-04T12:17:21.388Z,102016.63
2022-12-04T12:20:06.416Z,102013.87
2022-12-04T12:23:10.427Z,102021.66
2022-12-04T12:25:51.896Z,102025.02
2022-12-04T12:28:44.207Z,102026.70
2022-12-04T12:31:33.968Z,102023.84
2022-12-04T12:34:12.061Z,102025.63
2022-12-04T12:36:47.336Z,102033.52
2022-12-04T12:39:24.782Z,102029.93
2022-12-04T12:41:57.316Z,102023.72
2022-12-04T12:44:41.038Z,102013.19
2022-12-04T12:47:16.776Z,102015.83
2022-12-04T12:49:51.612Z,102022.77
2022-12-04T12:52:30.884Z,102017.50
2022-12-04T12:55:10.628Z,102012.23
2022-12-04T12:57:43.313Z,102000.03
2022-12-04T13:00:18.541Z,102014.05
2022-12-04T13:02:53.816Z,102010.69
2022-12-04T13:05:30.331Z,102009.73
2022-12-04T13:08:11.082Z,102019.63
2022-12-04T13:10:48.147Z,102012.82
2022-12-04T13:13:24.168Z,102017.13
2022-12-04T13:15:59.497Z,102013.64
2022-12-04T13:18:33.760Z,102021.66
2022-12-04T13:21:06.693Z,102014.72
2022-12-04T13:23:52.838Z,102010.41
2022-12-04T13:26:44.853Z,102011.37
2022-12-04T13:29:38.126Z,102019.26
2022-12-04T13:32:28.923Z,102013.14
2022-12-04T13:35:09.635Z,102012.41
2022-12-04T13:37:58.277Z,102012.41
2022-12-04T13:40:36.245Z,102024.62
2022-12-04T13:43:24.776Z,102021.16
2022-12-04T13:45:56.663Z,102029.87
2022-12-04T13:48:32.058Z,102030.09
2022-12-04T13:51:34.453Z,102030.23
2022-12-04T13:54:22.616Z,102037.17
2022-12-04T13:56:55.443Z,102037.17
2022-12-04T13:59:36.734Z,102040.02
2022-12-04T14:02:24.346Z,102033.17
2022-12-04T14:04:59.024Z,102047.18
2022-12-04T14:07:33.336Z,102053.27
2022-12-04T14:10:12.620Z,102047.05
2022-12-04T14:12:49.218Z,102049.69
2022-12-04T14:15:24.453Z,102044.64
2022-12-04T14:18:16.240Z,102041.28
2022-12-04T14:20:57.289Z,102046.55
2022-12-04T14:23:35.319Z,102057.19
2022-12-04T14:26:05.937Z,102052.03
2022-12-04T14:28:43.461Z,102057.29
2022-12-04T14:31:34.248Z,102047.72
2022-12-04T14:34:15.229Z,102051.30
2022-12-04T14:36:51.810Z,102047.84
2022-12-04T14:39:27.405Z,102050.48
2022-12-04T14:42:12.203Z,102053.20
2022-12-04T14:44:45.287Z,102048.06
2022-12-04T14:47:26.115Z,102043.75
2022-12-04T14:50:20.217Z,102057.00
2022-12-04T14:53:00.515Z,102057.13
2022-12-04T14:55:39.100Z,102050.28
2022-12-04T14:58:34.420Z,102052.30
2022-12-04T15:01:07.053Z,102056.92
2022-12-04T15:03:44.714Z,102055.15
2022-12-04T15:06:21.109Z,102040.33
2022-12-04T15:09:13.865Z,102046.53
2022-12-04T15:12:04.323Z,102057.14
2022-12-04T15:14:42.648Z,102052.09
2022-12-04T15:17:18.350Z,102049.59
2022-12-04T15:19:48.015Z,102068.00
2022-12-04T15:22:23.694Z,102061.06
2022-12-04T15:24:55.094Z,102064.51
2022-12-04T15:27:32.482Z,102064.51
2022-12-04T15:30:04.057Z,102058.43
2022-12-04T15:32:33.904Z,102064.63
2022-12-04T15:35:08.668Z,102071.78
2022-12-04T15:37:40.814Z,102069.25
2022-12-04T15:40:22.067Z,102073.69
2022-12-04T15:42:53.315Z,102077.47
2022-12-04T15:45:33.846Z,102074.94
2022-12-04T15:48:04.576Z,102085.57
2022-12-04T15:50:35.489Z,102077.91
2022-12-04T15:53:16.946Z,102080.53
2022-12-04T15:55:52.367Z,102076.95
2022-12-04T15:58:26.701Z,102083.03
2022-12-04T16:00:58.747Z,102088.29
2022-12-04T16:03:32.011Z,102074.33
2022-12-04T16:06:16.263Z,102075.16
2022-12-04T16:08:48.066Z,102073.59
2022-12-04T16:11:25.051Z,102069.50
2022-12-04T16:14:14.953Z,102078.33
2022-12-04T16:16:49.406Z,102076.65
2022-12-04T16:19:30.148Z,102088.92
2022-12-04T16:22:00.917Z,102086.30
2022-12-04T16:24:32.411Z,102090.73
2022-12-04T16:27:04.193Z,102087.25
2022-12-04T16:29:33.624Z,102088.19
2022-12-04T16:32:03.787Z,102093.45
2022-12-04T16:34:34.475Z,102095.13
2022-12-04T16:37:11.918Z,102091.55
2022-12-04T16:39:42.003Z,102098.41
2022-12-04T16:42:20.462Z,102090.52
2022-12-04T16:44:51.209Z,102086.09
2022-12-04T16:47:21.766Z,102085.27
2022-12-04T16:49:52.824Z,102090.61
2022-12-04T16:52:22.782Z,102090.61
2022-12-04T16:54:53.647Z,102092.41
2022-12-04T16:57:23.567Z,102080.22
2022-12-04T16:59:53.145Z,102094.19
2022-12-04T17:02:26.875Z,102088.19
2022-12-04T17:04:58.125Z,102098.70
2022-12-04T17:07:31.048Z,102087.37
2022-12-04T17:10:02.232Z,102086.63
2022-12-04T17:12:32.551Z,102086.52
2022-12-04T17:15:02.261Z,102081.37
2022-12-04T17:17:32.513Z,102084.95
2022-12-04T17:20:02.364Z,102085.90
2022-12-04T17:22:32.552Z,102094.61
2022-12-04T17:25:04.739Z,102095.55
2022-12-04T17:27:36.565Z,102102.48
2022-12-04T17:30:08.727Z,102098.09
2022-12-04T17:32:39.418Z,102102.48
2022-12-04T17:35:12.074Z,102112.05
2022-12-04T17:37:42.056Z,102105.97
2022-12-04T17:40:14.517Z,102107.74
2022-12-04T17:42:44.526Z,102104.37
2022-12-04T17:45:16.370Z,102111.31
2022-12-04T17:47:45.956Z,102113.12
2022-12-04T17:50:15.644Z,102108.69
2022-12-04T17:52:45.251Z,102113.20
2022-12-04T17:55:14.957Z,102112.27
2022-12-04T17:57:44.955Z,102117.42
2022-12-04T18:00:16.056Z,102113.00
2022-12-04T18:02:52.883Z,102105.23
2022-12-04T18:05:23.064Z,102106.19
2022-12-04T18:07:56.333Z,102114.06
2022-12-04T18:10:26.391Z,102112.38
2022-12-04T18:12:55.889Z,102112.38
2022-12-04T18:15:27.475Z,102111.44
2022-12-04T18:17:58.215Z,102105.45
2022-12-04T18:20:29.083Z,102106.27
2022-12-04T18:23:00.261Z,102103.64
2022-12-04T18:25:30.095Z,102102.82
2022-12-04T18:28:00.922Z,102106.27
2022-12-04T18:30:30.559Z,102101.02
2022-12-04T18:33:00.109Z,102104.59
2022-12-04T18:35:29.697Z,102110.79
2022-12-04T18:37:59.558Z,102106.48
2022-12-04T18:40:29.559Z,102102.91
2022-12-04T18:42:59.045Z,102109.02
2022-12-04T18:45:29.740Z,102110.79
2022-12-04T18:47:59.245Z,102112.59
2022-12-04T18:50:30.063Z,102112.59
2022-12-04T18:53:01.986Z,102127.41
2022-12-04T18:55:34.954Z,102116.16
2022-12-04T18:58:08.477Z,102128.36
2022-12-04T19:00:42.440Z,102117.94
2022-12-04T19:03:13.093Z,102124.78
2022-12-04T19:05:49.598Z,102118.67
2022-12-04T19:08:19.349Z,102117.94
2022-12-04T19:10:48.922Z,102120.56
2022-12-04T19:13:18.850Z,102122.36
2022-12-04T19:15:49.204Z,102124.05
2022-12-04T19:18:19.559Z,102119.83
2022-12-04T19:20:49.162Z,102119.73
2022-12-04T19:23:18.915Z,102114.48
2022-12-04T19:25:57.108Z,102120.68
2022-12-04T19:28:28.100Z,102121.50
2022-12-04T19:30:57.719Z,102123.19
2022-12-04T19:33:29.063Z,102119.73
2022-12-04T19:36:00.438Z,102120.68
2022-12-04T19:38:32.244Z,102118.88
2022-12-04T19:41:09.856Z,102116.25
2022-12-04T19:43:42.813Z,102114.48
2022-12-04T19:46:17.083Z,102118.88
2022-12-04T19:48:48.555Z,102116.25
2022-12-04T19:51:20.311Z,102114.48
2022-12-04T19:53:50.382Z,102115.30
2022-12-04T19:56:23.946Z,102115.30
2022-12-04T19:58:54.986Z,102110.05
2022-12-04T20:01:28.130Z,102118.80
2022-12-04T20:03:59.490Z,102114.48
2022-12-04T20:06:30.944Z,102121.42
2022-12-04T20:09:01.854Z,102126.55
2022-12-04T20:11:37.808Z,102116.98
2022-12-04T20:14:08.566Z,102121.30
2022-12-04T20:16:39.708Z,102116.98
2022-12-04T20:19:14.508Z,102116.98
2022-12-04T20:21:45.150Z,102119.61
2022-12-04T20:24:16.701Z,102111.00
2022-12-04T20:26:47.423Z,102121.42
2022-12-04T20:29:19.252Z,102123.31
2022-12-04T20:31:49.023Z,102119.83
2022-12-04T20:34:19.806Z,102122.45
2022-12-04T20:36:50.240Z,102112.80
2022-12-04T20:39:20.568Z,102109.31
2022-12-04T20:41:50.407Z,102111.94
2022-12-04T20:44:20.634Z,102108.37
2022-12-04T20:46:50.516Z,102112.68
2022-12-04T20:49:22.319Z,102111.86
2022-12-04T20:51:53.081Z,102112.47
2022-12-04T20:54:23.660Z,102106.39
2022-12-04T20:56:53.419Z,102100.28
2022-12-04T20:59:24.407Z,102102.91
2022-12-04T21:01:54.864Z,102098.52
2022-12-04T21:04:24.439Z,102096.83
2022-12-04T21:06:54.035Z,102099.45
2022-12-04T21:09:24.845Z,102092.52
2022-12-04T21:11:56.048Z,102099.55
2022-12-04T21:14:46.982Z,102092.61
2022-12-04T21:17:19.129Z,102089.25
2022-12-04T21:19:51.063Z,102098.59
2022-12-04T21:22:20.899Z,102085.47
2022-12-04T21:24:50.440Z,102079.38
2022-12-04T21:27:21.414Z,102082.02
2022-12-04T21:29:52.080Z,102080.21
2022-12-04T21:32:21.800Z,102082.75
2022-12-04T21:34:51.701Z,102089.77
2022-12-04T21:37:21.403Z,102087.14
2022-12-04T21:39:51.123Z,102081.80
2022-12-04T21:42:35.905Z,102080.86
2022-12-04T21:45:08.250Z,102078.44
2022-12-04T21:47:36.885Z,102080.00
2022-12-04T21:50:08.769Z,102075.81
2022-12-04T21:52:38.258Z,102074.02
2022-12-04T21:55:08.575Z,102074.95
2022-12-04T21:57:38.233Z,102073.27
2022-12-04T22:00:10.317Z,102064.57
2022-12-04T22:02:39.813Z,102065.52
2022-12-04T22:05:10.431Z,102065.52
2022-12-04T22:07:40.082Z,102061.09
2022-12-04T22:10:11.354Z,102062.89
2022-12-04T22:12:49.705Z,102056.78
2022-12-04T22:15:20.176Z,102057.63
2022-12-04T22:17:49.649Z,102056.78
2022-12-04T22:20:19.415Z,102062.98
2022-12-04T22:22:49.345Z,102060.27
2022-12-04T22:25:18.919Z,102056.78
2022-12-04T22:27:48.472Z,102055.95
2022-12-04T22:30:18.904Z,102056.91
2022-12-04T22:32:48.440Z,102059.41
2022-12-04T22:35:18.494Z,102056.69
2022-12-04T22:37:51.132Z,102047.95
2022-12-04T22:40:20.872Z,102047.00
2022-12-04T22:42:50.469Z,102041.02
2022-12-04T22:45:20.042Z,102045.33
2022-12-04T22:47:51.911Z,102040.92
2022-12-04T22:50:21.492Z,102034.73
2022-12-04T22:52:50.923Z,102034.73
2022-12-04T22:55:20.579Z,102037.35
2022-12-04T22:57:49.953Z,102043.44
2022-12-04T23:00:19.934Z,102042.48
2022-12-04T23:02:49.478Z,102044.28
2022-12-04T23:05:19.075Z,102040.72
2022-12-04T23:07:50.538Z,102036.41
2022-12-04T23:10:20.006Z,102042.61
2022-12-04T23:12:49.451Z,102048.59
2022-12-04T23:15:19.104Z,102044.16
2022-12-04T23:17:48.629Z,102044.16
2022-12-04T23:20:18.871Z,102040.72
2022-12-04T23:22:54.292Z,102036.41
2022-12-04T23:25:23.965Z,102037.35
2022-12-04T23:27:53.694Z,102034.73
2022-12-04T23:30:28.368Z,102026.11
2022-12-04T23:32:59.515Z,102031.37
2022-12-04T23:35:29.800Z,102034.81
2022-12-04T23:37:59.261Z,102039.25
2022-12-04T23:40:28.909Z,102035.77
2022-12-04T23:42:58.475Z,102030.52
2022-12-04T23:45:29.056Z,102035.88
2022-12-04T23:47:58.580Z,102038.60
2022-12-04T23:50:28.144Z,102033.34
2022-12-04T23:52:57.658Z,102035.97
2022-12-04T23:55:31.146Z,102034.20
2022-12-04T23:58:04.202Z,102044.71
